createdAt,value
2023-04-30T00:00:25.385Z,15.82
2023-04-30T00:02:51.281Z,20.30
2023-04-30T00:05:17.217Z,17.00
2023-04-30T00:07:43.165Z,19.98
2023-04-30T00:10:10.340Z,21.40
2023-04-30T00:12:36.696Z,22.17
2023-04-30T00:15:03.166Z,18.45
2023-04-30T00:17:29.096Z,19.20
2023-04-30T00:19:55.512Z,18.27
2023-04-30T00:22:21.665Z,17.88
2023-04-30T00:24:47.705Z,16.92
2023-04-30T00:27:13.512Z,17.23
2023-04-30T00:29:39.590Z,16.25
2023-04-30T00:32:05.680Z,17.67
2023-04-30T00:34:31.660Z,18.10
2023-04-30T00:36:57.480Z,17.60
2023-04-30T00:39:23.448Z,16.40
2023-04-30T00:41:49.508Z,15.93
2023-04-30T00:44:15.556Z,16.13
2023-04-30T00:46:41.500Z,21.15
2023-04-30T00:49:08.106Z,17.23
2023-04-30T00:51:34.940Z,18.85
2023-04-30T00:54:02.709Z,15.57
2023-04-30T00:56:30.278Z,16.52
2023-04-30T00:58:57.182Z,16.20
2023-04-30T01:01:30.127Z,14.68
2023-04-30T01:03:56.012Z,17.25
2023-04-30T01:06:22.150Z,16.67
2023-04-30T01:08:48.938Z,15.45
2023-04-30T01:11:14.920Z,18.35
2023-04-30T01:13:48.114Z,22.17
2023-04-30T01:16:25.988Z,17.17
2023-04-30T01:18:59.738Z,15.55
2023-04-30T01:21:30.038Z,15.68
2023-04-30T01:24:24.011Z,17.33
2023-04-30T01:27:15.231Z,17.50
2023-04-30T01:29:42.679Z,18.52
2023-04-30T01:32:10.354Z,18.67
2023-04-30T01:34:36.513Z,18.60
2023-04-30T01:37:02.302Z,17.15
2023-04-30T01:40:06.274Z,21.30
2023-04-30T01:43:31.368Z,17.77
2023-04-30T01:46:28.123Z,17.13
2023-04-30T01:49:31.635Z,17.45
2023-04-30T01:52:14.940Z,16.60
2023-04-30T01:54:58.896Z,18.52
2023-04-30T01:57:32.340Z,19.63
2023-04-30T01:59:59.323Z,18.10
2023-04-30T02:02:25.307Z,19.05
2023-04-30T02:04:51.473Z,17.83
2023-04-30T02:07:31.574Z,18.67
2023-04-30T02:09:57.339Z,18.48
2023-04-30T02:12:23.138Z,18.75
2023-04-30T02:14:48.950Z,18.70
2023-04-30T02:17:14.915Z,17.42
2023-04-30T02:19:49.259Z,19.65
2023-04-30T02:22:19.034Z,17.08
2023-04-30T02:24:45.051Z,18.88
2023-04-30T02:27:10.864Z,17.88
2023-04-30T02:29:36.689Z,17.40
2023-04-30T02:32:02.884Z,20.70
2023-04-30T02:34:28.800Z,17.33
2023-04-30T02:36:54.719Z,21.00
2023-04-30T02:39:20.504Z,24.17
2023-04-30T02:41:46.258Z,18.40
2023-04-30T02:44:12.092Z,18.20
2023-04-30T02:46:37.986Z,19.27
2023-04-30T02:49:03.741Z,18.35
2023-04-30T02:51:29.558Z,18.95
2023-04-30T02:53:55.552Z,18.58
2023-04-30T02:56:21.400Z,22.75
2023-04-30T02:58:47.410Z,24.42
2023-04-30T03:01:13.312Z,21.45
2023-04-30T03:03:39.247Z,21.90
2023-04-30T03:06:05.468Z,19.92
2023-04-30T03:08:31.407Z,18.83
2023-04-30T03:10:57.245Z,21.50
2023-04-30T03:13:25.466Z,19.33
2023-04-30T03:15:59.185Z,19.60
2023-04-30T03:18:25.837Z,19.23
2023-04-30T03:20:51.680Z,22.75
2023-04-30T03:23:17.497Z,19.35
2023-04-30T03:25:43.595Z,22.50
2023-04-30T03:28:09.496Z,23.30
2023-04-30T03:30:35.345Z,21.27
2023-04-30T03:33:01.233Z,20.05
2023-04-30T03:35:27.206Z,19.45
2023-04-30T03:37:53.065Z,20.50
2023-04-30T03:40:18.910Z,18.70
2023-04-30T03:42:44.765Z,25.00
2023-04-30T03:45:10.839Z,27.08
2023-04-30T03:47:36.701Z,19.42
2023-04-30T03:50:03.347Z,18.80
2023-04-30T03:52:30.504Z,18.30
2023-04-30T03:54:56.643Z,17.77
2023-04-30T03:57:22.502Z,20.27
2023-04-30T03:59:49.373Z,19.65
2023-04-30T04:02:15.394Z,19.52
2023-04-30T04:04:41.546Z,20.63
2023-04-30T04:07:08.931Z,17.40
2023-04-30T04:09:35.202Z,18.15
2023-04-30T04:12:02.013Z,21.75
2023-04-30T04:14:27.845Z,17.15
2023-04-30T04:16:53.692Z,19.15
2023-04-30T04:19:19.485Z,18.35
2023-04-30T04:21:45.434Z,21.05
2023-04-30T04:24:11.729Z,20.08
2023-04-30T04:26:37.636Z,20.35
2023-04-30T04:29:04.134Z,19.15
2023-04-30T04:31:31.241Z,17.17
2023-04-30T04:33:59.689Z,18.30
2023-04-30T04:36:29.590Z,18.20
2023-04-30T04:39:04.949Z,18.02
2023-04-30T04:41:33.315Z,18.02
2023-04-30T04:44:01.109Z,20.27
2023-04-30T04:46:27.680Z,23.75
2023-04-30T04:48:53.654Z,20.00
2023-04-30T04:51:20.211Z,20.85
2023-04-30T04:53:46.139Z,25.42
2023-04-30T04:56:12.461Z,20.67
2023-04-30T04:58:39.225Z,21.55
2023-04-30T05:01:05.344Z,20.70
2023-04-30T05:03:32.754Z,23.02
2023-04-30T05:05:58.945Z,17.65
2023-04-30T05:08:24.952Z,23.10
2023-04-30T05:10:50.971Z,17.60
2023-04-30T05:13:16.781Z,25.67
2023-04-30T05:15:42.565Z,20.13
2023-04-30T05:18:08.524Z,18.77
2023-04-30T05:20:34.339Z,17.77
2023-04-30T05:23:00.194Z,19.02
2023-04-30T05:25:25.977Z,21.25
2023-04-30T05:27:51.834Z,19.65
2023-04-30T05:30:17.753Z,21.33
2023-04-30T05:32:49.837Z,20.63
2023-04-30T05:35:16.563Z,19.58
2023-04-30T05:37:42.543Z,22.65
2023-04-30T05:40:09.338Z,19.60
2023-04-30T05:42:35.763Z,19.10
2023-04-30T05:45:02.074Z,18.00
2023-04-30T05:47:27.871Z,18.75
2023-04-30T05:49:54.168Z,18.92
2023-04-30T05:52:20.202Z,18.80
2023-04-30T05:54:49.389Z,18.67
2023-04-30T05:57:16.250Z,18.63
2023-04-30T05:59:42.025Z,19.05
2023-04-30T06:02:08.422Z,16.85
2023-04-30T06:04:34.201Z,17.98
2023-04-30T06:07:00.043Z,16.45
2023-04-30T06:09:25.856Z,18.10
2023-04-30T06:11:52.334Z,15.43
2023-04-30T06:14:19.432Z,15.98
2023-04-30T06:16:45.744Z,14.95
2023-04-30T06:19:12.288Z,15.15
2023-04-30T06:21:38.625Z,17.90
2023-04-30T06:24:04.752Z,18.00
2023-04-30T06:26:30.597Z,16.30
2023-04-30T06:28:56.429Z,16.00
2023-04-30T06:31:22.481Z,17.92
2023-04-30T06:33:49.646Z,19.48
2023-04-30T06:36:15.525Z,16.45
2023-04-30T06:38:42.205Z,15.93
2023-04-30T06:41:08.402Z,16.77
2023-04-30T06:43:34.212Z,15.52
2023-04-30T06:46:00.417Z,18.88
2023-04-30T06:48:26.301Z,17.10
2023-04-30T06:50:52.556Z,15.82
2023-04-30T06:53:18.422Z,16.17
2023-04-30T06:55:47.565Z,16.92
2023-04-30T06:58:13.667Z,15.35
2023-04-30T07:00:39.923Z,15.70
2023-04-30T07:03:06.137Z,16.27
2023-04-30T07:05:32.438Z,15.30
2023-04-30T07:08:02.980Z,18.38
2023-04-30T07:10:29.488Z,14.98
2023-04-30T07:12:55.873Z,14.98
2023-04-30T07:15:21.751Z,13.35
2023-04-30T07:17:47.557Z,13.43
2023-04-30T07:20:16.915Z,12.10
2023-04-30T07:22:45.199Z,15.85
2023-04-30T07:25:14.402Z,11.38
2023-04-30T07:27:40.673Z,15.77
2023-04-30T07:30:08.557Z,12.43
2023-04-30T07:32:35.001Z,13.90
2023-04-30T07:35:00.887Z,11.80
2023-04-30T07:37:27.109Z,13.00
2023-04-30T07:39:53.052Z,12.68
2023-04-30T07:42:19.146Z,11.88
2023-04-30T07:44:45.468Z,12.50
2023-04-30T07:47:11.337Z,12.45
2023-04-30T07:49:37.139Z,12.23
2023-04-30T07:52:03.264Z,12.02
2023-04-30T07:54:29.043Z,11.32
2023-04-30T07:59:23.789Z,9.82
2023-04-30T08:01:50.963Z,9.77
2023-04-30T08:04:16.953Z,10.05
2023-04-30T08:06:43.055Z,8.45
2023-04-30T08:09:09.000Z,6.50
2023-04-30T08:11:34.870Z,7.60
2023-04-30T08:14:00.810Z,7.10
2023-04-30T08:16:26.735Z,6.65
2023-04-30T08:18:52.587Z,8.68
2023-04-30T08:21:18.543Z,6.10
2023-04-30T08:23:44.344Z,6.45
2023-04-30T08:26:10.189Z,5.47
2023-04-30T08:28:36.059Z,4.70
2023-04-30T08:31:01.921Z,6.20
2023-04-30T08:33:27.872Z,6.53
2023-04-30T08:35:54.072Z,8.55
2023-04-30T08:38:20.178Z,6.65
2023-04-30T08:41:03.745Z,7.32
2023-04-30T08:43:30.271Z,6.28
2023-04-30T08:45:56.419Z,4.55
2023-04-30T08:48:24.201Z,6.38
2023-04-30T08:50:50.227Z,3.88
2023-04-30T08:53:17.137Z,4.53
2023-04-30T08:55:43.941Z,3.95
2023-04-30T08:58:10.064Z,2.72
2023-04-30T09:00:37.912Z,2.70
2023-04-30T09:03:05.087Z,3.50
2023-04-30T09:05:30.961Z,4.35
2023-04-30T09:10:27.250Z,4.57
2023-04-30T09:13:01.212Z,4.03
2023-04-30T09:15:28.143Z,3.72
2023-04-30T09:18:19.039Z,4.55
2023-04-30T09:21:02.613Z,2.67
2023-04-30T09:23:30.101Z,1.63
2023-04-30T09:25:56.522Z,1.52
2023-04-30T09:28:25.739Z,1.77
2023-04-30T09:30:52.502Z,1.17
2023-04-30T09:33:18.720Z,1.20
2023-04-30T09:35:44.791Z,1.48
2023-04-30T09:38:30.820Z,1.83
2023-04-30T09:41:00.758Z,0.73
2023-04-30T09:43:27.958Z,1.50
2023-04-30T09:45:53.802Z,1.75
2023-04-30T09:48:23.838Z,2.65
2023-04-30T09:50:51.105Z,1.60
2023-04-30T09:53:18.057Z,1.63
2023-04-30T09:55:46.989Z,1.17
2023-04-30T09:58:14.276Z,1.38
2023-04-30T10:00:41.809Z,1.40
2023-04-30T10:03:12.649Z,2.92
2023-04-30T10:05:43.610Z,2.17
2023-04-30T10:08:20.580Z,1.75
2023-04-30T10:10:51.210Z,1.55
2023-04-30T10:13:20.382Z,0.80
2023-04-30T10:15:51.137Z,1.27
2023-04-30T10:18:28.679Z,1.08
2023-04-30T10:20:56.393Z,0.93
2023-04-30T10:23:22.409Z,1.48
2023-04-30T10:25:50.118Z,1.23
2023-04-30T10:28:16.443Z,1.10
2023-04-30T10:30:45.111Z,1.45
2023-04-30T10:33:33.832Z,1.80
2023-04-30T10:36:03.690Z,3.78
2023-04-30T10:38:31.719Z,0.70
2023-04-30T10:41:00.524Z,0.95
2023-04-30T10:43:28.873Z,1.00
2023-04-30T10:45:56.758Z,0.80
2023-04-30T10:48:26.312Z,0.73
2023-04-30T10:50:56.827Z,0.68
2023-04-30T10:53:25.327Z,1.65
2023-04-30T10:56:07.563Z,2.10
2023-04-30T10:58:36.284Z,0.73
2023-04-30T11:01:14.254Z,2.33
2023-04-30T11:03:42.334Z,1.02
2023-04-30T11:06:19.215Z,0.80
2023-04-30T11:08:46.128Z,0.63
2023-04-30T11:11:20.381Z,0.65
2023-04-30T11:13:57.292Z,0.95
2023-04-30T11:16:29.085Z,1.17
2023-04-30T11:19:05.430Z,2.45
2023-04-30T11:21:33.372Z,1.15
2023-04-30T11:24:03.866Z,0.85
2023-04-30T11:26:29.873Z,1.58
2023-04-30T11:28:57.023Z,1.30
2023-04-30T11:31:32.908Z,1.48
2023-04-30T11:34:00.084Z,1.02
2023-04-30T11:36:30.109Z,2.25
2023-04-30T11:38:56.607Z,0.93
2023-04-30T11:41:26.541Z,0.77
2023-04-30T11:43:52.358Z,1.42
2023-04-30T11:46:18.389Z,1.15
2023-04-30T11:48:45.506Z,1.45
2023-04-30T11:51:23.466Z,3.35
2023-04-30T11:53:50.994Z,1.63
2023-04-30T11:56:21.264Z,2.30
2023-04-30T11:58:48.577Z,0.65
2023-04-30T12:01:15.218Z,0.63
2023-04-30T12:03:47.619Z,0.82
2023-04-30T12:06:28.160Z,0.80
2023-04-30T12:08:58.766Z,5.28
2023-04-30T12:11:26.996Z,0.75
2023-04-30T12:14:02.961Z,1.30
2023-04-30T12:16:38.984Z,3.22
2023-04-30T12:19:05.068Z,0.60
2023-04-30T12:21:32.188Z,1.35
2023-04-30T12:23:58.377Z,0.82
2023-04-30T12:26:24.284Z,1.55
2023-04-30T12:28:51.908Z,0.57
2023-04-30T12:31:18.058Z,1.33
2023-04-30T12:33:43.899Z,1.05
2023-04-30T12:36:10.525Z,2.38
2023-04-30T12:38:36.302Z,1.17
2023-04-30T12:41:04.524Z,2.47
2023-04-30T12:43:30.501Z,0.70
2023-04-30T12:45:57.121Z,1.17
2023-04-30T12:48:24.623Z,1.13
2023-04-30T12:50:54.447Z,1.23
2023-04-30T12:53:21.289Z,0.98
2023-04-30T12:56:11.391Z,0.90
2023-04-30T12:58:39.035Z,0.70
2023-04-30T13:01:05.667Z,1.45
2023-04-30T13:03:31.762Z,0.40
2023-04-30T13:05:58.151Z,2.05
2023-04-30T13:08:24.316Z,0.80
2023-04-30T13:10:51.174Z,1.98
2023-04-30T13:13:17.907Z,1.20
2023-04-30T13:15:44.028Z,1.38
2023-04-30T13:18:10.078Z,0.73
2023-04-30T13:20:36.416Z,1.27
2023-04-30T13:23:03.109Z,1.42
2023-04-30T13:25:29.764Z,1.23
2023-04-30T13:27:57.842Z,0.77
2023-04-30T13:30:23.887Z,1.58
2023-04-30T13:32:51.584Z,2.80
2023-04-30T13:35:18.568Z,2.75
2023-04-30T13:37:44.571Z,0.95
2023-04-30T13:40:10.884Z,1.45
2023-04-30T13:42:38.569Z,1.75
2023-04-30T13:45:06.179Z,1.23
2023-04-30T13:47:32.199Z,4.55
2023-04-30T13:49:58.084Z,1.45
2023-04-30T13:52:23.953Z,2.50
2023-04-30T13:54:50.413Z,1.88
2023-04-30T13:57:17.762Z,0.82
2023-04-30T13:59:43.951Z,1.38
2023-04-30T14:02:10.412Z,0.65
2023-04-30T14:04:37.588Z,1.25
2023-04-30T14:07:03.985Z,1.33
2023-04-30T14:09:30.192Z,1.10
2023-04-30T14:11:59.541Z,1.63
2023-04-30T14:14:26.213Z,3.42
2023-04-30T14:16:52.310Z,0.65
2023-04-30T14:19:19.251Z,1.33
2023-04-30T14:21:46.085Z,2.83
2023-04-30T14:24:12.168Z,1.85
2023-04-30T14:26:40.434Z,1.45
2023-04-30T14:29:06.906Z,1.90
2023-04-30T14:31:32.976Z,1.95
2023-04-30T14:33:59.347Z,2.40
2023-04-30T14:36:26.893Z,1.50
2023-04-30T14:38:53.497Z,3.42
2023-04-30T14:41:19.454Z,4.47
2023-04-30T14:43:45.308Z,2.00
2023-04-30T14:46:11.333Z,3.47
2023-04-30T14:48:37.387Z,2.03
2023-04-30T14:51:03.901Z,2.10
2023-04-30T14:53:33.058Z,3.75
2023-04-30T14:55:59.113Z,1.42
2023-04-30T14:58:25.055Z,2.00
2023-04-30T15:00:51.091Z,2.67
2023-04-30T15:03:17.149Z,5.13
2023-04-30T15:05:43.197Z,1.00
2023-04-30T15:08:09.976Z,1.85
2023-04-30T15:10:35.842Z,1.98
2023-04-30T15:13:03.401Z,1.75
2023-04-30T15:15:30.083Z,2.35
2023-04-30T15:17:57.359Z,1.60
2023-04-30T15:20:23.975Z,1.20
2023-04-30T15:22:50.433Z,1.58
2023-04-30T15:25:17.271Z,1.45
2023-04-30T15:27:43.454Z,2.22
2023-04-30T15:30:09.857Z,2.10
2023-04-30T15:32:35.921Z,2.42
2023-04-30T15:35:01.768Z,2.40
2023-04-30T15:37:27.561Z,2.58
2023-04-30T15:39:53.638Z,1.48
2023-04-30T15:42:19.855Z,3.22
2023-04-30T15:44:45.734Z,2.40
2023-04-30T15:47:11.965Z,1.67
2023-04-30T15:49:37.894Z,4.05
2023-04-30T15:52:04.051Z,1.40
2023-04-30T15:54:30.105Z,1.67
2023-04-30T15:56:57.650Z,2.30
2023-04-30T15:59:23.421Z,2.38
2023-04-30T16:01:49.271Z,3.05
2023-04-30T16:04:15.201Z,1.80
2023-04-30T16:06:41.640Z,3.53
2023-04-30T16:09:08.226Z,3.78
2023-04-30T16:11:35.471Z,3.20
2023-04-30T16:14:05.797Z,2.58
2023-04-30T16:16:31.794Z,0.85
2023-04-30T16:18:57.712Z,2.22
2023-04-30T16:21:23.874Z,2.45
2023-04-30T16:23:49.903Z,1.60
2023-04-30T16:26:19.320Z,1.17
2023-04-30T16:28:46.336Z,1.65
2023-04-30T16:31:14.774Z,2.08
2023-04-30T16:33:41.641Z,3.65
2023-04-30T16:36:07.613Z,3.25
2023-04-30T16:38:33.436Z,2.38
2023-04-30T16:40:59.503Z,5.35
2023-04-30T16:43:25.502Z,4.53
2023-04-30T16:45:52.227Z,2.90
2023-04-30T16:48:18.155Z,2.35
2023-04-30T16:50:44.126Z,2.65
2023-04-30T16:53:11.120Z,2.78
2023-04-30T16:55:37.213Z,3.15
2023-04-30T16:58:03.023Z,2.60
2023-04-30T17:00:29.062Z,3.17
2023-04-30T17:02:55.069Z,3.60
2023-04-30T17:05:21.137Z,1.95
2023-04-30T17:07:48.114Z,3.50
2023-04-30T17:10:14.895Z,2.53
2023-04-30T17:12:41.079Z,3.08
2023-04-30T17:15:07.396Z,3.53
2023-04-30T17:17:33.366Z,1.33
2023-04-30T17:19:59.798Z,2.22
2023-04-30T17:22:25.840Z,3.53
2023-04-30T17:24:51.725Z,1.85
2023-04-30T17:27:19.233Z,1.55
2023-04-30T17:29:45.150Z,3.60
2023-04-30T17:32:11.052Z,2.05
2023-04-30T17:34:37.432Z,3.35
2023-04-30T17:37:03.607Z,2.40
2023-04-30T17:39:32.731Z,2.17
2023-04-30T17:41:58.972Z,3.47
2023-04-30T17:44:25.218Z,3.47
2023-04-30T17:46:51.201Z,6.03
2023-04-30T17:49:17.382Z,4.72
2023-04-30T17:51:43.275Z,4.40
2023-04-30T17:54:09.231Z,2.28
2023-04-30T17:56:35.597Z,1.50
2023-04-30T17:59:03.644Z,4.07
2023-04-30T18:01:29.543Z,3.42
2023-04-30T18:03:55.718Z,2.83
2023-04-30T18:06:21.771Z,5.57
2023-04-30T18:08:47.863Z,2.83
2023-04-30T18:11:13.930Z,2.75
2023-04-30T18:13:39.875Z,2.33
2023-04-30T18:16:05.863Z,3.33
2023-04-30T18:18:31.976Z,4.68
2023-04-30T18:20:59.180Z,5.95
2023-04-30T18:23:25.260Z,4.97
2023-04-30T18:25:51.303Z,3.70
2023-04-30T18:28:17.973Z,1.38
2023-04-30T18:30:44.460Z,5.78
2023-04-30T18:33:10.843Z,2.78
2023-04-30T18:35:37.237Z,5.20
2023-04-30T18:38:03.175Z,3.00
2023-04-30T18:40:29.135Z,2.28
2023-04-30T18:42:56.102Z,4.57
2023-04-30T18:45:22.726Z,3.35
2023-04-30T18:47:48.832Z,2.72
2023-04-30T18:50:17.117Z,2.45
2023-04-30T18:52:44.198Z,2.05
2023-04-30T18:55:12.977Z,2.22
2023-04-30T18:57:42.063Z,4.05
2023-04-30T19:00:09.828Z,5.80
2023-04-30T19:02:36.304Z,6.60
2023-04-30T19:05:05.494Z,2.55
2023-04-30T19:07:31.434Z,4.32
2023-04-30T19:09:58.303Z,10.55
2023-04-30T19:12:24.193Z,2.05
2023-04-30T19:14:50.450Z,4.18
2023-04-30T19:17:19.469Z,4.80
2023-04-30T19:19:46.815Z,3.28
2023-04-30T19:22:14.113Z,10.60
2023-04-30T19:24:40.336Z,5.80
2023-04-30T19:27:06.503Z,8.02
2023-04-30T19:29:32.642Z,7.70
2023-04-30T19:31:59.024Z,7.50
2023-04-30T19:34:27.972Z,6.38
2023-04-30T19:36:54.815Z,6.70
2023-04-30T19:39:20.767Z,6.35
2023-04-30T19:41:47.611Z,3.08
2023-04-30T19:44:16.591Z,6.93
2023-04-30T19:46:42.830Z,4.00
2023-04-30T19:49:09.116Z,2.63
2023-04-30T19:51:35.215Z,5.75
2023-04-30T19:54:01.235Z,6.78
2023-04-30T19:56:27.292Z,4.43
2023-04-30T19:58:53.270Z,2.83
2023-04-30T20:01:19.196Z,3.70
2023-04-30T20:03:45.543Z,4.18
2023-04-30T20:06:11.648Z,4.32
2023-04-30T20:08:37.533Z,6.03
2023-04-30T20:11:03.830Z,6.43
2023-04-30T20:13:30.077Z,3.35
2023-04-30T20:15:55.958Z,4.03
2023-04-30T20:18:21.744Z,4.82
2023-04-30T20:20:48.056Z,2.58
2023-04-30T20:23:15.602Z,2.70
2023-04-30T20:25:44.261Z,5.95
2023-04-30T20:28:14.380Z,7.45
2023-04-30T20:30:43.902Z,6.38
2023-04-30T20:33:11.076Z,3.05
2023-04-30T20:35:39.992Z,4.93
2023-04-30T20:38:06.292Z,4.20
2023-04-30T20:40:33.051Z,10.07
2023-04-30T20:42:59.251Z,4.15
2023-04-30T20:45:25.594Z,2.70
2023-04-30T20:47:51.680Z,3.97
2023-04-30T20:50:19.709Z,3.15
2023-04-30T20:52:46.001Z,3.55
2023-04-30T20:55:12.370Z,7.97
2023-04-30T20:57:38.224Z,4.68
2023-04-30T21:00:06.074Z,1.65
2023-04-30T21:02:33.344Z,1.88
2023-04-30T21:05:03.729Z,3.03
2023-04-30T21:07:32.220Z,3.70
2023-04-30T21:09:58.731Z,5.80
2023-04-30T21:12:24.971Z,3.15
2023-04-30T21:14:51.253Z,3.25
2023-04-30T21:17:19.285Z,2.83
2023-04-30T21:19:45.673Z,3.15
2023-04-30T21:22:12.140Z,3.20
2023-04-30T21:24:39.106Z,1.77
2023-04-30T21:27:05.962Z,3.78
2023-04-30T21:29:32.406Z,1.25
2023-04-30T21:31:58.395Z,3.25
2023-04-30T21:34:24.327Z,2.47
2023-04-30T21:36:53.047Z,6.65
2023-04-30T21:39:18.916Z,3.78
2023-04-30T21:41:44.785Z,5.20
2023-04-30T21:44:11.665Z,4.82
2023-04-30T21:46:37.762Z,3.13
2023-04-30T21:49:03.694Z,1.67
2023-04-30T21:51:30.114Z,3.03
2023-04-30T21:53:56.618Z,4.32
2023-04-30T21:56:22.517Z,6.68
2023-04-30T21:58:48.463Z,2.13
2023-04-30T22:01:14.349Z,2.92
2023-04-30T22:03:41.396Z,4.70
2023-04-30T22:06:07.683Z,3.00
2023-04-30T22:08:33.712Z,2.83
2023-04-30T22:11:00.387Z,4.65
2023-04-30T22:13:27.551Z,1.98
2023-04-30T22:15:53.977Z,2.78
2023-04-30T22:18:21.275Z,2.30
2023-04-30T22:20:51.222Z,3.88
2023-04-30T22:23:20.613Z,4.82
2023-04-30T22:25:46.764Z,7.18
2023-04-30T22:28:13.518Z,5.78
2023-04-30T22:30:39.506Z,4.07
2023-04-30T22:33:05.847Z,3.75
2023-04-30T22:35:35.296Z,3.40
2023-04-30T22:38:02.776Z,2.67
2023-04-30T22:40:28.981Z,3.08
2023-04-30T22:42:55.212Z,5.50
2023-04-30T22:45:21.903Z,4.22
2023-04-30T22:47:48.146Z,4.15
2023-04-30T22:50:14.050Z,2.35
2023-04-30T22:52:39.947Z,3.50
2023-04-30T22:55:06.610Z,2.72
2023-04-30T22:57:32.680Z,3.28
2023-04-30T22:59:58.962Z,3.72
2023-04-30T23:02:25.644Z,4.03
2023-04-30T23:04:51.930Z,3.78
2023-04-30T23:07:19.343Z,5.82
2023-04-30T23:09:45.199Z,3.28
2023-04-30T23:12:11.200Z,3.58
2023-04-30T23:14:37.090Z,7.90
2023-04-30T23:17:03.011Z,3.40
2023-04-30T23:19:29.088Z,7.15
2023-04-30T23:21:55.007Z,3.78
2023-04-30T23:24:20.920Z,3.25
2023-04-30T23:26:46.940Z,4.43
2023-04-30T23:29:14.051Z,2.20
2023-04-30T23:31:39.990Z,4.60
2023-04-30T23:34:05.897Z,3.40
2023-04-30T23:36:32.416Z,2.85
2023-04-30T23:38:58.216Z,5.28
2023-04-30T23:41:24.142Z,3.33
2023-04-30T23:43:50.528Z,3.05
2023-04-30T23:46:16.603Z,3.78
2023-04-30T23:48:42.605Z,3.38
2023-04-30T23:51:08.453Z,4.30
2023-04-30T23:53:34.623Z,4.60
2023-04-30T23:56:00.543Z,4.50
2023-04-30T23:58:30.562Z,6.50
